Lambeth, United Kingdom
Current Conditions -  °F | °C
As of 4:20 AM on Wednesday 26 Nov 2014 (Local Time) from EGLC Reporting Station
Overcast Overcast  
Wind Chill: 48°   Ceiling: 1200
Heat Index: 48°   Visibility: 6mi
Dew Point: 45°   Wind: 3mph
Humidity: 87%   Direction: NA
Pressure: 29.91"   Gusts: NA
Location:  51.49°N, 0.11°W
Report Text: EGLC 260420Z AUTO VRB03KT 9999 FEW006/// SCT009/// OVC012/// 09/07 Q1013
Loading
Personal Weather Stations






























Interactive Weather Map New forecast layout! Learn more

10-Day Weather Forecast

Advertisements
Track Severe Weather on mobile